createdAt,value
2023-03-14T00:00:53.076Z,1.55
2023-03-14T00:03:19.994Z,1.65
2023-03-14T00:05:46.835Z,1.30
2023-03-14T00:08:13.564Z,2.08
2023-03-14T00:10:40.284Z,0.73
2023-03-14T00:13:08.048Z,1.90
2023-03-14T00:15:35.352Z,1.65
2023-03-14T00:18:02.585Z,0.80
2023-03-14T00:20:29.163Z,2.20
2023-03-14T00:22:55.694Z,1.02
2023-03-14T00:25:22.367Z,1.77
2023-03-14T00:27:51.723Z,0.90
2023-03-14T00:30:18.515Z,1.02
2023-03-14T00:32:45.256Z,1.58
2023-03-14T00:35:11.975Z,1.73
2023-03-14T00:37:38.649Z,0.93
2023-03-14T00:40:07.762Z,1.48
2023-03-14T00:42:34.447Z,0.82
2023-03-14T00:45:01.055Z,1.23
2023-03-14T00:47:27.680Z,0.98
2023-03-14T00:49:54.261Z,2.70
2023-03-14T00:52:20.915Z,1.70
2023-03-14T00:54:47.560Z,0.90
2023-03-14T00:57:14.156Z,1.17
2023-03-14T00:59:40.698Z,2.30
2023-03-14T01:02:07.356Z,2.05
2023-03-14T01:04:34.188Z,0.93
2023-03-14T01:07:00.725Z,0.73
2023-03-14T01:09:27.326Z,1.92
2023-03-14T01:11:53.924Z,2.17
2023-03-14T01:14:20.483Z,1.13
2023-03-14T01:16:47.199Z,2.03
2023-03-14T01:19:13.974Z,0.80
2023-03-14T01:21:40.566Z,2.70
2023-03-14T01:24:07.742Z,0.73
2023-03-14T01:26:35.784Z,1.05
2023-03-14T01:29:02.791Z,1.48
2023-03-14T01:31:29.567Z,2.83
2023-03-14T01:33:56.200Z,1.63
2023-03-14T01:36:22.748Z,2.70
2023-03-14T01:38:49.400Z,1.83
2023-03-14T01:41:18.827Z,0.75
2023-03-14T01:43:46.235Z,0.85
2023-03-14T01:46:19.123Z,1.40
2023-03-14T01:48:52.874Z,0.85
2023-03-14T01:51:42.894Z,2.65
2023-03-14T01:54:21.257Z,1.00
2023-03-14T01:56:54.312Z,0.45
2023-03-14T01:59:21.396Z,1.42
2023-03-14T02:01:50.515Z,0.75
2023-03-14T02:04:19.236Z,1.45
2023-03-14T02:06:51.191Z,0.95
2023-03-14T02:09:18.010Z,1.17
2023-03-14T02:11:44.990Z,2.72
2023-03-14T02:14:22.740Z,1.25
2023-03-14T02:16:49.549Z,1.90
2023-03-14T02:19:21.845Z,1.77
2023-03-14T02:22:01.964Z,1.63
2023-03-14T02:24:39.114Z,1.73
2023-03-14T02:29:56.321Z,1.65
2023-03-14T02:32:25.107Z,1.02
2023-03-14T02:34:58.197Z,1.95
2023-03-14T02:37:30.165Z,2.35
2023-03-14T02:39:57.005Z,2.67
2023-03-14T02:42:23.502Z,1.65
2023-03-14T02:44:56.096Z,1.35
2023-03-14T02:47:28.598Z,2.10
2023-03-14T02:50:01.984Z,2.45
2023-03-14T02:52:28.770Z,3.22
2023-03-14T02:54:55.280Z,2.92
2023-03-14T02:57:22.038Z,1.48
2023-03-14T02:59:48.543Z,2.97
2023-03-14T03:02:15.104Z,1.73
2023-03-14T03:04:41.854Z,0.90
2023-03-14T03:07:08.465Z,2.67
2023-03-14T03:09:35.103Z,1.42
2023-03-14T03:12:01.769Z,1.77
2023-03-14T03:14:28.268Z,1.67
2023-03-14T03:16:54.824Z,1.17
2023-03-14T03:19:22.054Z,3.13
2023-03-14T03:21:49.366Z,2.00
2023-03-14T03:24:15.934Z,1.88
2023-03-14T03:26:42.600Z,1.42
2023-03-14T03:29:09.138Z,1.52
2023-03-14T03:31:38.384Z,2.45
2023-03-14T03:34:05.286Z,1.25
2023-03-14T03:36:32.474Z,3.60
2023-03-14T03:38:58.973Z,5.45
2023-03-14T03:41:25.815Z,2.70
2023-03-14T03:43:52.469Z,2.00
2023-03-14T03:46:19.026Z,0.55
2023-03-14T03:48:45.844Z,1.60
2023-03-14T03:51:16.774Z,1.67
2023-03-14T03:56:10.941Z,3.85
2023-03-14T03:58:39.865Z,3.42
2023-03-14T04:01:10.303Z,2.78
2023-03-14T04:03:40.013Z,1.27
2023-03-14T04:06:09.542Z,1.05
2023-03-14T04:08:36.303Z,2.95
2023-03-14T04:11:04.443Z,2.15
2023-03-14T04:13:31.038Z,1.77
2023-03-14T04:15:57.844Z,3.90
2023-03-14T04:18:27.925Z,4.35
2023-03-14T04:20:58.692Z,3.40
2023-03-14T04:23:26.004Z,1.73
2023-03-14T04:25:53.305Z,3.55
2023-03-14T04:28:20.224Z,4.03
2023-03-14T04:30:46.856Z,3.17
2023-03-14T04:33:18.389Z,3.95
2023-03-14T04:35:46.201Z,0.90
2023-03-14T04:38:13.826Z,2.80
2023-03-14T04:40:41.895Z,4.32
2023-03-14T04:43:11.127Z,1.70
2023-03-14T04:45:38.568Z,5.88
2023-03-14T04:48:05.478Z,2.72
2023-03-14T04:50:31.979Z,5.07
2023-03-14T04:52:58.504Z,2.53
2023-03-14T04:55:25.428Z,4.32
2023-03-14T04:57:51.961Z,3.80
2023-03-14T05:00:19.432Z,2.45
2023-03-14T05:02:46.922Z,3.60
2023-03-14T05:05:13.430Z,3.05
2023-03-14T05:07:39.948Z,2.25
2023-03-14T05:10:06.828Z,4.05
2023-03-14T05:12:33.373Z,1.45
2023-03-14T05:14:59.876Z,3.78
2023-03-14T05:17:26.534Z,3.95
2023-03-14T05:19:53.085Z,2.88
2023-03-14T05:22:19.632Z,2.40
2023-03-14T05:24:46.543Z,2.65
2023-03-14T05:27:13.060Z,2.83
2023-03-14T05:29:39.578Z,2.28
2023-03-14T05:32:06.534Z,1.83
2023-03-14T05:34:33.288Z,2.47
2023-03-14T05:37:00.001Z,2.75
2023-03-14T05:39:26.783Z,3.97
2023-03-14T05:41:54.977Z,0.95
2023-03-14T05:44:21.605Z,4.07
2023-03-14T05:46:48.344Z,2.85
2023-03-14T05:49:14.904Z,3.85
2023-03-14T05:51:41.436Z,2.92
2023-03-14T05:54:08.238Z,2.80
2023-03-14T05:56:34.752Z,4.68
2023-03-14T05:59:03.258Z,1.88
2023-03-14T06:01:30.967Z,2.95
2023-03-14T06:03:57.547Z,3.00
2023-03-14T06:06:24.108Z,3.28
2023-03-14T06:08:51.131Z,2.42
2023-03-14T06:11:17.691Z,5.72
2023-03-14T06:13:44.296Z,2.85
2023-03-14T06:16:11.215Z,3.28
2023-03-14T06:18:37.878Z,5.25
2023-03-14T06:21:04.568Z,2.97
2023-03-14T06:23:33.014Z,2.63
2023-03-14T06:25:59.630Z,4.30
2023-03-14T06:28:26.386Z,1.90
2023-03-14T06:30:53.297Z,4.15
2023-03-14T06:33:19.918Z,2.45
2023-03-14T06:35:46.577Z,2.25
2023-03-14T06:38:13.325Z,4.15
2023-03-14T06:40:39.981Z,3.53
2023-03-14T06:43:06.963Z,5.22
2023-03-14T06:45:33.688Z,5.22
2023-03-14T06:48:00.430Z,4.63
2023-03-14T06:50:27.015Z,1.98
2023-03-14T06:52:53.623Z,3.72
2023-03-14T06:55:22.500Z,4.85
2023-03-14T06:57:49.224Z,3.03
2023-03-14T07:00:16.233Z,3.45
2023-03-14T07:02:43.599Z,2.60
2023-03-14T07:05:13.536Z,2.03
2023-03-14T07:07:40.191Z,3.08
2023-03-14T07:10:08.259Z,1.25
2023-03-14T07:12:34.759Z,2.15
2023-03-14T07:15:15.668Z,1.00
2023-03-14T07:17:45.081Z,3.72
2023-03-14T07:20:11.928Z,2.00
2023-03-14T07:22:38.523Z,1.35
2023-03-14T07:25:05.553Z,2.90
2023-03-14T07:27:32.267Z,1.27
2023-03-14T07:29:58.773Z,5.10
2023-03-14T07:32:25.472Z,3.47
2023-03-14T07:34:52.044Z,4.40
2023-03-14T07:37:18.552Z,2.60
2023-03-14T07:39:45.139Z,2.88
2023-03-14T07:42:12.301Z,2.90
2023-03-14T07:44:38.919Z,3.10
2023-03-14T07:47:05.704Z,1.77
2023-03-14T07:49:32.748Z,2.35
2023-03-14T07:52:00.102Z,5.15
2023-03-14T07:54:26.680Z,2.90
2023-03-14T07:56:53.499Z,2.35
2023-03-14T07:59:20.217Z,1.15
2023-03-14T08:01:46.937Z,2.35
2023-03-14T08:04:13.580Z,2.50
2023-03-14T08:06:40.184Z,0.73
2023-03-14T08:09:06.772Z,1.05
2023-03-14T08:11:33.411Z,0.90
2023-03-14T08:13:59.923Z,1.00
2023-03-14T08:16:26.619Z,0.22
2023-03-14T08:18:53.273Z,2.13
2023-03-14T08:21:19.828Z,3.00
2023-03-14T08:23:46.478Z,2.30
2023-03-14T08:26:13.154Z,1.45
2023-03-14T08:28:39.658Z,1.55
2023-03-14T08:31:06.402Z,0.75
2023-03-14T08:33:33.142Z,1.25
2023-03-14T08:36:01.489Z,1.20
2023-03-14T08:38:28.769Z,3.10
2023-03-14T08:41:00.507Z,2.97
2023-03-14T08:43:28.379Z,1.60
2023-03-14T08:45:58.062Z,2.05
2023-03-14T08:48:24.648Z,2.05
2023-03-14T08:50:51.124Z,0.90
2023-03-14T08:53:17.956Z,3.20
2023-03-14T08:55:44.556Z,1.58
2023-03-14T08:58:11.071Z,1.73
2023-03-14T09:00:37.709Z,3.20
2023-03-14T09:03:04.324Z,4.10
2023-03-14T09:05:34.359Z,6.40
2023-03-14T09:08:01.633Z,7.43
2023-03-14T09:10:28.316Z,3.42
2023-03-14T09:12:54.819Z,2.72
2023-03-14T09:15:21.454Z,7.20
2023-03-14T09:17:48.174Z,5.43
2023-03-14T09:20:15.477Z,2.72
2023-03-14T09:22:42.177Z,6.35
2023-03-14T09:25:09.530Z,4.38
2023-03-14T09:27:36.075Z,3.17
2023-03-14T09:30:03.403Z,0.95
2023-03-14T09:32:32.736Z,4.57
2023-03-14T09:34:59.466Z,2.28
2023-03-14T09:37:26.145Z,2.70
2023-03-14T09:39:52.820Z,2.10
2023-03-14T09:42:23.692Z,2.88
2023-03-14T09:45:00.891Z,1.48
2023-03-14T09:47:28.197Z,0.98
2023-03-14T09:49:54.761Z,1.38
2023-03-14T09:52:42.825Z,1.10
2023-03-14T09:55:22.449Z,2.40
2023-03-14T09:57:51.862Z,1.13
2023-03-14T10:00:22.753Z,3.70
2023-03-14T10:02:58.109Z,3.47
2023-03-14T10:05:26.745Z,2.42
2023-03-14T10:07:53.220Z,2.05
2023-03-14T10:10:22.226Z,2.22
2023-03-14T10:12:57.267Z,1.88
2023-03-14T10:15:30.546Z,4.22
2023-03-14T10:18:00.485Z,2.83
2023-03-14T10:20:43.547Z,3.05
2023-03-14T10:23:12.817Z,1.98
2023-03-14T10:25:44.502Z,3.75
2023-03-14T10:28:29.105Z,5.20
2023-03-14T10:30:57.201Z,3.42
2023-03-14T10:33:32.830Z,3.25
2023-03-14T10:36:04.099Z,3.72
2023-03-14T10:38:36.563Z,1.70
2023-03-14T10:41:15.652Z,3.63
2023-03-14T10:43:42.678Z,4.60
2023-03-14T10:46:20.315Z,5.30
2023-03-14T10:48:47.467Z,6.07
2023-03-14T10:51:31.169Z,3.78
2023-03-14T10:54:14.242Z,3.25
2023-03-14T10:56:43.227Z,5.28
2023-03-14T10:59:16.629Z,4.15
2023-03-14T11:01:59.092Z,5.22
2023-03-14T11:04:56.226Z,4.32
2023-03-14T11:07:34.746Z,7.68
2023-03-14T11:10:27.613Z,6.07
2023-03-14T11:13:18.524Z,4.07
2023-03-14T11:15:59.187Z,4.45
2023-03-14T11:18:49.041Z,6.00
2023-03-14T11:21:35.869Z,6.25
2023-03-14T11:24:21.576Z,3.33
2023-03-14T11:27:06.888Z,2.50
2023-03-14T11:29:42.137Z,3.95
2023-03-14T11:32:15.378Z,4.03
2023-03-14T11:34:53.075Z,3.50
2023-03-14T11:37:41.733Z,4.28
2023-03-14T11:40:41.493Z,3.47
2023-03-14T11:43:33.766Z,4.90
2023-03-14T11:46:06.551Z,4.43
2023-03-14T11:48:45.188Z,4.03
2023-03-14T11:51:35.647Z,2.53
2023-03-14T11:54:12.317Z,3.70
2023-03-14T11:56:42.055Z,4.70
2023-03-14T11:59:23.065Z,4.50
2023-03-14T12:02:24.592Z,4.93
2023-03-14T12:05:15.940Z,2.90
2023-03-14T12:08:07.280Z,3.95
2023-03-14T12:10:41.602Z,3.63
2023-03-14T12:13:11.895Z,9.32
2023-03-14T12:15:50.166Z,8.60
2023-03-14T12:18:29.500Z,4.00
2023-03-14T12:20:59.535Z,5.88
2023-03-14T12:23:28.250Z,5.10
2023-03-14T12:26:23.146Z,4.90
2023-03-14T12:28:51.867Z,4.38
2023-03-14T12:31:30.956Z,5.60
2023-03-14T12:34:12.956Z,4.70
2023-03-14T12:36:49.815Z,4.47
2023-03-14T12:39:47.216Z,7.97
2023-03-14T12:42:16.427Z,4.45
2023-03-14T12:44:45.675Z,6.43
2023-03-14T12:47:21.706Z,5.00
2023-03-14T12:49:51.066Z,4.03
2023-03-14T12:52:22.390Z,4.30
2023-03-14T12:54:54.916Z,3.85
2023-03-14T12:57:41.513Z,4.97
2023-03-14T13:00:22.632Z,6.15
2023-03-14T13:02:50.362Z,7.32
2023-03-14T13:05:24.339Z,6.97
2023-03-14T13:07:55.722Z,5.35
2023-03-14T13:10:37.149Z,4.25
2023-03-14T13:13:26.827Z,4.32
2023-03-14T13:16:04.624Z,5.88
2023-03-14T13:18:40.562Z,5.57
2023-03-14T13:21:20.657Z,4.97
2023-03-14T13:23:58.018Z,5.03
2023-03-14T13:28:52.062Z,4.57
2023-03-14T13:31:28.058Z,4.95
2023-03-14T13:34:03.270Z,3.25
2023-03-14T13:36:30.025Z,6.82
2023-03-14T13:39:00.915Z,6.93
2023-03-14T13:41:28.527Z,4.53
2023-03-14T13:44:04.794Z,3.50
2023-03-14T13:46:34.075Z,2.47
2023-03-14T13:49:04.266Z,6.72
2023-03-14T13:51:34.200Z,5.03
2023-03-14T13:54:01.437Z,6.35
2023-03-14T13:56:30.099Z,6.03
2023-03-14T13:58:57.400Z,4.35
2023-03-14T14:01:26.384Z,4.90
2023-03-14T14:03:55.876Z,4.80
2023-03-14T14:06:32.336Z,4.15
2023-03-14T14:09:04.010Z,4.35
2023-03-14T14:12:07.517Z,4.43
2023-03-14T14:14:42.056Z,3.55
2023-03-14T14:17:16.906Z,4.07
2023-03-14T14:19:44.898Z,3.92
2023-03-14T14:22:11.925Z,3.67
2023-03-14T14:24:39.600Z,5.75
2023-03-14T14:27:37.882Z,7.80
2023-03-14T14:30:26.538Z,5.05
2023-03-14T14:32:53.365Z,5.35
2023-03-14T14:35:38.193Z,4.28
2023-03-14T14:38:14.085Z,4.85
2023-03-14T14:40:46.987Z,4.57
2023-03-14T14:43:19.286Z,4.15
2023-03-14T14:45:48.768Z,3.60
2023-03-14T14:48:15.896Z,3.20
2023-03-14T14:50:48.633Z,4.60
2023-03-14T14:53:37.814Z,3.60
2023-03-14T14:56:25.705Z,5.72
2023-03-14T14:59:00.667Z,5.15
2023-03-14T15:01:34.110Z,3.33
2023-03-14T15:04:01.123Z,5.53
2023-03-14T15:06:30.316Z,5.18
2023-03-14T15:08:56.856Z,3.97
2023-03-14T15:11:26.330Z,4.22
2023-03-14T15:13:53.800Z,3.72
2023-03-14T15:16:28.675Z,2.55
2023-03-14T15:18:57.671Z,4.22
2023-03-14T15:21:26.016Z,5.80
2023-03-14T15:23:53.353Z,3.78
2023-03-14T15:26:22.272Z,4.30
2023-03-14T15:28:49.545Z,5.82
2023-03-14T15:31:18.824Z,5.93
2023-03-14T15:33:46.369Z,3.88
2023-03-14T15:36:28.658Z,3.40
2023-03-14T15:38:56.562Z,4.53
2023-03-14T15:41:24.072Z,4.45
2023-03-14T15:43:50.855Z,5.35
2023-03-14T15:46:22.653Z,3.38
2023-03-14T15:48:51.072Z,5.07
2023-03-14T15:51:18.086Z,6.60
2023-03-14T15:53:44.744Z,3.03
2023-03-14T15:56:15.688Z,3.45
2023-03-14T15:58:42.517Z,4.05
2023-03-14T16:01:12.460Z,4.32
2023-03-14T16:03:39.490Z,3.00
2023-03-14T16:06:06.527Z,5.75
2023-03-14T16:08:33.160Z,2.53
2023-03-14T16:11:00.421Z,3.53
2023-03-14T16:13:28.647Z,2.35
2023-03-14T16:15:56.056Z,7.93
2023-03-14T16:18:23.037Z,5.70
2023-03-14T16:20:58.313Z,2.78
2023-03-14T16:23:25.921Z,3.08
2023-03-14T16:25:53.903Z,5.45
2023-03-14T16:28:20.761Z,4.68
2023-03-14T16:30:47.822Z,2.80
2023-03-14T16:33:16.061Z,5.28
2023-03-14T16:35:53.996Z,6.80
2023-03-14T16:38:20.673Z,3.60
2023-03-14T16:40:56.536Z,5.18
2023-03-14T16:43:23.044Z,3.83
2023-03-14T16:45:50.916Z,3.47
2023-03-14T16:48:17.737Z,5.72
2023-03-14T16:50:44.274Z,3.42
2023-03-14T16:55:59.110Z,3.22
2023-03-14T16:58:26.060Z,5.95
2023-03-14T17:00:52.674Z,7.18
2023-03-14T17:03:19.732Z,4.32
2023-03-14T17:05:48.646Z,5.20
2023-03-14T17:08:16.863Z,4.90
2023-03-14T17:10:43.526Z,4.63
2023-03-14T17:13:10.615Z,4.47
2023-03-14T17:15:37.528Z,5.50
2023-03-14T17:18:04.851Z,5.20
2023-03-14T17:20:32.334Z,5.55
2023-03-14T17:22:58.910Z,6.75
2023-03-14T17:25:25.601Z,6.47
2023-03-14T17:27:52.177Z,4.65
2023-03-14T17:30:18.835Z,6.38
2023-03-14T17:32:45.494Z,3.70
2023-03-14T17:35:12.182Z,5.18
2023-03-14T17:37:38.809Z,4.80
2023-03-14T17:40:06.175Z,5.47
2023-03-14T17:42:32.975Z,6.90
2023-03-14T17:44:59.498Z,5.55
2023-03-14T17:47:26.178Z,6.38
2023-03-14T17:49:52.735Z,5.53
2023-03-14T17:52:19.436Z,6.47
2023-03-14T17:54:46.101Z,6.80
2023-03-14T17:57:12.649Z,7.43
2023-03-14T17:59:39.177Z,4.13
2023-03-14T18:02:06.809Z,4.72
2023-03-14T18:04:33.623Z,5.07
2023-03-14T18:07:00.258Z,7.32
2023-03-14T18:09:26.895Z,7.60
2023-03-14T18:12:05.163Z,6.15
2023-03-14T18:14:34.595Z,6.70
2023-03-14T18:17:01.244Z,5.47
2023-03-14T18:19:27.758Z,5.35
2023-03-14T18:21:54.362Z,6.80
2023-03-14T18:24:21.819Z,6.43
2023-03-14T18:26:48.705Z,6.13
2023-03-14T18:29:15.376Z,6.00
2023-03-14T18:31:42.696Z,5.13
2023-03-14T18:34:09.963Z,5.93
2023-03-14T18:36:36.911Z,7.07
2023-03-14T18:39:06.754Z,7.63
2023-03-14T18:41:35.009Z,7.53
2023-03-14T18:44:02.340Z,13.02
2023-03-14T18:46:29.731Z,15.00
2023-03-14T18:48:56.888Z,9.13
2023-03-14T18:51:29.172Z,7.28
2023-03-14T18:54:08.439Z,10.18
2023-03-14T18:56:36.486Z,17.58
2023-03-14T18:59:03.137Z,12.88
2023-03-14T19:01:31.524Z,12.02
2023-03-14T19:04:01.675Z,12.43
2023-03-14T19:06:31.968Z,10.60
2023-03-14T19:08:58.914Z,9.07
2023-03-14T19:11:26.866Z,13.30
2023-03-14T19:13:57.011Z,9.80
2023-03-14T19:16:24.787Z,8.77
2023-03-14T19:18:55.737Z,10.98
2023-03-14T19:23:59.766Z,10.10
2023-03-14T19:26:28.754Z,13.43
2023-03-14T19:28:55.584Z,13.30
2023-03-14T19:31:22.273Z,14.07
2023-03-14T19:33:48.976Z,10.25
2023-03-14T19:36:21.338Z,12.77
2023-03-14T19:38:48.291Z,11.93
2023-03-14T19:41:14.797Z,9.77
2023-03-14T19:43:41.424Z,14.75
2023-03-14T19:46:08.084Z,11.63
2023-03-14T19:48:34.593Z,13.77
2023-03-14T19:51:01.598Z,11.93
2023-03-14T19:53:28.723Z,12.60
2023-03-14T19:55:55.273Z,12.00
2023-03-14T19:58:23.695Z,11.43
2023-03-14T20:00:50.964Z,13.00
2023-03-14T20:03:17.542Z,13.02
2023-03-14T20:05:47.013Z,13.02
2023-03-14T20:08:13.772Z,12.77
2023-03-14T20:10:40.308Z,14.30
2023-03-14T20:13:19.017Z,12.70
2023-03-14T20:15:47.874Z,12.05
2023-03-14T20:18:14.459Z,11.43
2023-03-14T20:20:44.331Z,11.98
2023-03-14T20:23:11.043Z,11.65
2023-03-14T20:25:37.979Z,12.70
2023-03-14T20:28:05.267Z,13.98
2023-03-14T20:30:32.674Z,13.85
2023-03-14T20:32:59.519Z,18.67
2023-03-14T20:35:26.178Z,16.98
2023-03-14T20:37:54.338Z,16.50
2023-03-14T20:40:21.249Z,19.65
2023-03-14T20:42:47.784Z,13.88
2023-03-14T20:45:15.045Z,14.27
2023-03-14T20:47:41.951Z,14.82
2023-03-14T20:50:09.520Z,16.10
2023-03-14T20:52:36.378Z,16.58
2023-03-14T20:55:03.553Z,16.92
2023-03-14T20:57:30.064Z,17.08
2023-03-14T20:59:56.739Z,13.65
2023-03-14T21:02:38.708Z,17.13
2023-03-14T21:05:06.331Z,17.13
2023-03-14T21:07:34.369Z,18.48
2023-03-14T21:10:00.917Z,16.23
2023-03-14T21:12:27.542Z,17.05
2023-03-14T21:14:54.169Z,14.80
2023-03-14T21:17:21.042Z,15.90
2023-03-14T21:19:47.610Z,19.73
2023-03-14T21:22:18.453Z,17.42
2023-03-14T21:24:46.166Z,16.23
2023-03-14T21:27:12.821Z,15.60
2023-03-14T21:29:39.557Z,19.88
2023-03-14T21:32:06.202Z,16.23
2023-03-14T21:34:33.142Z,19.73
2023-03-14T21:36:59.684Z,15.32
2023-03-14T21:39:26.241Z,15.27
2023-03-14T21:41:52.932Z,15.65
2023-03-14T21:44:20.536Z,15.88
2023-03-14T21:46:48.016Z,16.40
2023-03-14T21:49:15.753Z,15.23
2023-03-14T21:51:45.851Z,17.77
2023-03-14T21:54:16.880Z,17.52
2023-03-14T21:59:11.433Z,13.63
2023-03-14T22:01:38.261Z,15.55
2023-03-14T22:04:04.939Z,16.20
2023-03-14T22:06:31.503Z,18.17
2023-03-14T22:08:58.111Z,16.50
2023-03-14T22:11:25.170Z,20.50
2023-03-14T22:13:51.836Z,18.92
2023-03-14T22:16:18.471Z,18.95
2023-03-14T22:18:45.546Z,18.10
2023-03-14T22:21:12.110Z,17.17
2023-03-14T22:23:38.792Z,16.10
2023-03-14T22:26:05.422Z,16.30
2023-03-14T22:28:31.922Z,19.08
2023-03-14T22:30:59.165Z,16.38
2023-03-14T22:33:26.533Z,18.33
2023-03-14T22:35:53.530Z,16.27
2023-03-14T22:38:20.448Z,16.08
2023-03-14T22:40:47.200Z,18.80
2023-03-14T22:43:13.900Z,16.92
2023-03-14T22:45:40.743Z,16.15
2023-03-14T22:48:07.550Z,15.57
2023-03-14T22:50:34.792Z,17.17
2023-03-14T22:53:01.548Z,17.35
2023-03-14T22:55:28.037Z,17.33
2023-03-14T22:57:55.249Z,13.85
2023-03-14T23:00:22.886Z,16.05
2023-03-14T23:02:49.529Z,15.10
2023-03-14T23:05:16.348Z,15.27
2023-03-14T23:07:42.917Z,12.68
2023-03-14T23:10:10.471Z,14.38
2023-03-14T23:12:37.053Z,13.57
2023-03-14T23:15:06.431Z,11.70
2023-03-14T23:17:33.764Z,12.90
2023-03-14T23:20:00.292Z,15.77
2023-03-14T23:22:28.051Z,13.38
2023-03-14T23:24:54.677Z,11.63
2023-03-14T23:27:21.604Z,13.27
2023-03-14T23:29:48.265Z,11.85
2023-03-14T23:32:17.700Z,11.23
2023-03-14T23:34:44.493Z,11.60
2023-03-14T23:37:15.050Z,10.63
2023-03-14T23:39:45.337Z,7.97
2023-03-14T23:42:12.476Z,8.63
2023-03-14T23:44:39.177Z,11.40
2023-03-14T23:47:05.907Z,5.78
2023-03-14T23:49:32.495Z,6.68
2023-03-14T23:51:59.149Z,7.25
2023-03-14T23:54:25.774Z,8.18
2023-03-14T23:56:52.314Z,6.53
2023-03-14T23:59:19.038Z,7.82
